createdAt,value
2018-04-08T00:01:37.336Z,90.70
2018-04-08T00:04:05.868Z,90.70
2018-04-08T00:06:34.142Z,90.90
2018-04-08T00:09:02.336Z,90.70
2018-04-08T00:11:30.537Z,90.70
2018-04-08T00:13:58.784Z,90.70
2018-04-08T00:16:27.145Z,91.30
2018-04-08T00:18:55.347Z,91.50
2018-04-08T00:21:23.549Z,92.20
2018-04-08T00:23:51.735Z,92.50
2018-04-08T00:26:19.956Z,92.30
2018-04-08T00:28:48.172Z,92.20
2018-04-08T00:31:16.388Z,92.40
2018-04-08T00:33:45.381Z,92.50
2018-04-08T00:36:13.611Z,92.40
2018-04-08T00:38:41.830Z,92.80
2018-04-08T00:41:10.797Z,93.20
2018-04-08T00:43:39.022Z,93.20
2018-04-08T00:46:07.980Z,93.60
2018-04-08T00:48:36.937Z,93.90
2018-04-08T00:51:05.248Z,93.90
2018-04-08T00:53:34.205Z,94.00
2018-04-08T00:56:02.396Z,94.00
2018-04-08T00:58:30.636Z,94.20
2018-04-08T01:00:58.898Z,94.20
2018-04-08T01:03:27.085Z,94.20
2018-04-08T01:05:56.524Z,94.30
2018-04-08T01:08:24.719Z,94.40
2018-04-08T01:10:53.718Z,94.80
2018-04-08T01:13:23.600Z,94.80
2018-04-08T01:15:51.828Z,94.80
2018-04-08T01:18:20.028Z,95.10
2018-04-08T01:20:48.560Z,95.10
2018-04-08T01:23:17.520Z,95.20
2018-04-08T01:25:46.544Z,95.50
2018-04-08T01:28:15.760Z,95.60
2018-04-08T01:30:43.968Z,95.50
2018-04-08T01:33:12.180Z,95.40
2018-04-08T01:35:40.416Z,95.30
2018-04-08T01:38:08.952Z,95.40
2018-04-08T01:40:38.291Z,95.50
2018-04-08T01:43:06.569Z,95.50
2018-04-08T01:45:34.780Z,95.40
2018-04-08T01:48:02.978Z,95.60
2018-04-08T01:50:31.960Z,96.10
2018-04-08T01:53:00.166Z,96.20
2018-04-08T01:55:28.371Z,96.10
2018-04-08T01:57:56.785Z,96.00
2018-04-08T02:00:24.989Z,95.80
2018-04-08T02:02:53.177Z,95.70
2018-04-08T02:05:21.416Z,95.80
2018-04-08T02:07:49.730Z,95.80
2018-04-08T02:10:17.961Z,96.30
2018-04-08T02:12:46.196Z,95.90
2018-04-08T02:15:14.388Z,95.90
2018-04-08T02:17:42.605Z,95.80
2018-04-08T02:20:11.677Z,95.50
2018-04-08T02:22:39.870Z,95.50
2018-04-08T02:25:08.068Z,95.40
2018-04-08T02:27:36.332Z,95.40
2018-04-08T02:30:05.319Z,95.70
2018-04-08T02:32:33.501Z,95.70
2018-04-08T02:35:02.486Z,96.10
2018-04-08T02:37:31.484Z,96.10
2018-04-08T02:40:00.444Z,96.20
2018-04-08T02:42:28.673Z,96.20
2018-04-08T02:44:56.854Z,96.40
2018-04-08T02:47:25.105Z,96.40
2018-04-08T02:49:54.164Z,96.70
2018-04-08T02:52:22.364Z,96.70
2018-04-08T02:54:51.331Z,96.80
2018-04-08T02:57:19.553Z,96.80
2018-04-08T02:59:47.745Z,96.80
2018-04-08T03:02:15.948Z,96.80
2018-04-08T03:04:44.229Z,96.80
2018-04-08T03:07:12.425Z,96.50
2018-04-08T03:09:42.660Z,97.00
2018-04-08T03:12:11.669Z,97.20
2018-04-08T03:14:39.924Z,97.20
2018-04-08T03:17:08.904Z,97.70
2018-04-08T03:19:37.148Z,97.70
2018-04-08T03:22:05.357Z,97.80
2018-04-08T03:24:33.564Z,97.80
2018-04-08T03:27:01.880Z,97.90
2018-04-08T03:29:30.100Z,97.80
2018-04-08T03:31:58.280Z,97.70
2018-04-08T03:34:27.272Z,97.50
2018-04-08T03:36:56.237Z,97.50
2018-04-08T03:39:24.432Z,97.50
2018-04-08T03:41:53.415Z,97.70
2018-04-08T03:44:21.653Z,97.40
2018-04-08T03:46:49.844Z,97.50
2018-04-08T03:49:18.116Z,97.30
2018-04-08T03:51:46.316Z,97.10
2018-04-08T03:54:14.521Z,97.30
2018-04-08T03:56:42.733Z,97.20
2018-04-08T03:59:10.933Z,97.10
2018-04-08T04:01:39.176Z,97.20
2018-04-08T04:04:07.413Z,97.30
2018-04-08T04:06:36.404Z,97.30
2018-04-08T04:09:06.073Z,97.40
2018-04-08T04:11:34.424Z,97.40
2018-04-08T04:14:02.612Z,97.50
2018-04-08T04:16:30.852Z,97.50
2018-04-08T04:19:10.788Z,97.70
2018-04-08T04:22:01.394Z,97.50
2018-04-08T04:24:42.041Z,97.60
2018-04-08T04:27:10.285Z,97.60
2018-04-08T04:29:38.468Z,97.60
2018-04-08T04:32:06.736Z,97.80
2018-04-08T04:34:34.925Z,97.70
2018-04-08T04:37:03.125Z,97.70
2018-04-08T04:39:32.105Z,97.90
2018-04-08T04:42:00.369Z,97.90
2018-04-08T04:44:28.577Z,98.00
2018-04-08T04:46:57.564Z,98.10
2018-04-08T04:49:26.592Z,98.30
2018-04-08T04:51:54.785Z,98.30
2018-04-08T04:54:23.110Z,98.40
2018-04-08T04:56:52.108Z,98.00
2018-04-08T04:59:21.140Z,98.40
2018-04-08T05:01:49.340Z,98.40
2018-04-08T05:04:17.605Z,98.30
2018-04-08T05:06:45.792Z,98.20
2018-04-08T05:09:14.012Z,98.30
2018-04-08T05:11:44.288Z,98.20
2018-04-08T05:14:12.480Z,98.00
2018-04-08T05:16:40.757Z,98.00
2018-04-08T05:19:09.020Z,98.10
2018-04-08T05:21:37.244Z,98.30
2018-04-08T05:24:05.458Z,98.10
2018-04-08T05:26:33.673Z,98.40
2018-04-08T05:29:02.636Z,96.90
2018-04-08T05:31:30.864Z,96.90
2018-04-08T05:33:59.048Z,96.50
2018-04-08T05:36:27.273Z,96.00
2018-04-08T05:38:55.605Z,95.90
2018-04-08T05:41:23.877Z,95.70
2018-04-08T05:43:52.129Z,95.30
2018-04-08T05:46:21.108Z,95.00
2018-04-08T05:48:49.361Z,95.00
2018-04-08T05:51:17.578Z,94.90
2018-04-08T05:53:45.780Z,94.60
2018-04-08T05:56:13.968Z,94.50
2018-04-08T05:58:42.168Z,94.50
2018-04-08T06:01:10.465Z,94.10
2018-04-08T06:03:39.464Z,93.90
2018-04-08T06:06:08.469Z,93.80
2018-04-08T06:08:36.690Z,93.80
2018-04-08T06:11:04.945Z,93.80
2018-04-08T06:13:33.390Z,93.80
2018-04-08T06:16:02.378Z,93.70
2018-04-08T06:18:31.390Z,93.40
2018-04-08T06:20:59.581Z,93.30
2018-04-08T06:23:27.910Z,93.30
2018-04-08T06:25:56.128Z,93.20
2018-04-08T06:28:24.326Z,93.30
2018-04-08T06:30:52.600Z,93.20
2018-04-08T06:33:20.805Z,93.00
2018-04-08T06:35:49.089Z,93.20
2018-04-08T06:38:17.318Z,93.60
2018-04-08T06:40:45.521Z,93.00
2018-04-08T06:43:13.774Z,92.90
2018-04-08T06:45:42.055Z,93.40
2018-04-08T06:48:10.314Z,92.70
2018-04-08T06:50:38.508Z,93.00
2018-04-08T06:53:06.777Z,92.90
2018-04-08T06:55:35.006Z,92.70
2018-04-08T06:58:03.969Z,92.20
2018-04-08T07:00:32.209Z,92.30
2018-04-08T07:03:00.428Z,92.10
2018-04-08T07:05:28.710Z,91.90
2018-04-08T07:07:57.056Z,91.80
2018-04-08T07:10:25.317Z,91.80
2018-04-08T07:12:53.576Z,91.40
2018-04-08T07:15:22.018Z,91.30
2018-04-08T07:17:50.269Z,91.30
2018-04-08T07:20:18.470Z,91.30
2018-04-08T07:22:46.763Z,91.30
2018-04-08T07:25:15.833Z,90.60
2018-04-08T07:27:44.061Z,90.50
2018-04-08T07:30:12.366Z,90.40
2018-04-08T07:32:40.629Z,90.30
2018-04-08T07:35:08.772Z,90.30
2018-04-08T07:37:37.768Z,90.10
2018-04-08T07:40:06.084Z,90.10
2018-04-08T07:42:34.358Z,89.40
2018-04-08T07:45:02.613Z,89.10
2018-04-08T07:47:30.866Z,88.50
2018-04-08T07:49:59.111Z,88.60
2018-04-08T07:52:27.297Z,90.30
2018-04-08T07:54:55.528Z,86.50
2018-04-08T07:57:23.789Z,84.30
2018-04-08T07:59:52.054Z,83.30
2018-04-08T08:02:21.012Z,78.50
2018-04-08T08:04:49.214Z,78.50
2018-04-08T08:07:18.232Z,76.50
2018-04-08T08:09:46.453Z,76.40
2018-04-08T08:12:14.818Z,73.70
2018-04-08T08:14:43.153Z,72.60
2018-04-08T08:17:12.639Z,68.70
2018-04-08T08:19:41.685Z,62.30
2018-04-08T08:22:09.924Z,62.30
2018-04-08T08:24:38.117Z,61.10
2018-04-08T08:27:06.426Z,59.90
2018-04-08T08:29:34.757Z,61.20
2018-04-08T08:32:03.077Z,63.50
2018-04-08T08:34:31.301Z,66.10
2018-04-08T08:37:00.645Z,72.00
2018-04-08T08:39:28.840Z,72.00
2018-04-08T08:41:57.165Z,72.70
2018-04-08T08:44:25.385Z,72.80
2018-04-08T08:46:53.582Z,72.80
2018-04-08T08:49:22.637Z,76.40
2018-04-08T08:51:50.953Z,76.30
2018-04-08T08:54:19.917Z,73.90
2018-04-08T08:56:48.165Z,73.60
2018-04-08T08:59:16.464Z,74.70
2018-04-08T09:01:44.665Z,75.40
2018-04-08T09:04:16.572Z,74.90
2018-04-08T09:06:45.033Z,74.90
2018-04-08T09:09:13.164Z,73.90
2018-04-08T09:11:41.469Z,75.80
2018-04-08T09:14:10.497Z,75.30
2018-04-08T09:16:38.712Z,75.20
2018-04-08T09:19:26.693Z,74.50
2018-04-08T09:22:01.360Z,74.40
2018-04-08T09:24:34.504Z,74.40
2018-04-08T09:27:03.491Z,73.00
2018-04-08T09:29:32.480Z,74.80
2018-04-08T09:32:01.541Z,73.30
2018-04-08T09:34:29.745Z,73.30
2018-04-08T09:36:58.014Z,72.60
2018-04-08T09:39:26.283Z,74.30
2018-04-08T09:41:54.636Z,72.20
2018-04-08T09:44:22.833Z,71.50
2018-04-08T09:46:51.064Z,69.20
2018-04-08T09:49:19.285Z,66.20
2018-04-08T09:51:47.489Z,64.90
2018-04-08T09:54:16.528Z,61.90
2018-04-08T09:56:44.724Z,61.70
2018-04-08T09:59:12.930Z,59.90
2018-04-08T10:01:47.673Z,57.00
2018-04-08T10:04:15.885Z,57.00
2018-04-08T10:06:44.134Z,56.60
2018-04-08T10:09:12.368Z,58.30
2018-04-08T10:11:40.601Z,57.20
2018-04-08T10:14:08.822Z,59.00
2018-04-08T10:16:37.047Z,58.80
2018-04-08T10:19:05.258Z,59.10
2018-04-08T10:21:34.997Z,57.80
2018-04-08T10:24:03.325Z,57.30
2018-04-08T10:26:31.600Z,56.70
2018-04-08T10:28:59.813Z,55.80
2018-04-08T10:31:28.021Z,54.40
2018-04-08T10:33:56.244Z,53.00
2018-04-08T10:36:24.457Z,50.80
2018-04-08T10:38:53.449Z,52.20
2018-04-08T10:41:22.424Z,51.30
2018-04-08T10:43:50.624Z,51.30
2018-04-08T10:46:18.913Z,51.70
2018-04-08T10:48:47.106Z,51.20
2018-04-08T10:51:15.317Z,51.50
2018-04-08T10:53:43.555Z,51.00
2018-04-08T10:56:11.769Z,53.00
2018-04-08T10:58:39.968Z,51.40
2018-04-08T11:01:09.251Z,47.50
2018-04-08T11:03:38.290Z,47.50
2018-04-08T11:06:06.606Z,49.40
2018-04-08T11:08:34.934Z,49.00
2018-04-08T11:11:03.176Z,48.30
2018-04-08T11:13:31.393Z,45.00
2018-04-08T11:15:59.628Z,46.00
2018-04-08T11:18:27.840Z,47.80
2018-04-08T11:20:56.090Z,46.40
2018-04-08T11:23:24.884Z,45.40
2018-04-08T11:25:53.848Z,46.30
2018-04-08T11:28:22.120Z,46.20
2018-04-08T11:30:50.405Z,45.10
2018-04-08T11:33:18.666Z,44.20
2018-04-08T11:35:46.929Z,43.80
2018-04-08T11:38:15.169Z,46.30
2018-04-08T11:40:43.430Z,48.60
2018-04-08T11:43:12.540Z,49.60
2018-04-08T11:45:40.828Z,49.50
2018-04-08T11:48:09.132Z,50.10
2018-04-08T11:50:37.451Z,49.00
2018-04-08T11:53:08.159Z,46.40
2018-04-08T11:55:36.524Z,46.50
2018-04-08T11:58:04.763Z,42.70
2018-04-08T12:00:33.873Z,42.80
2018-04-08T12:03:02.074Z,42.80
2018-04-08T12:05:30.292Z,43.40
2018-04-08T12:07:59.261Z,41.60
2018-04-08T12:10:27.469Z,41.60
2018-04-08T12:12:56.438Z,41.20
2018-04-08T12:15:24.711Z,41.30
2018-04-08T12:17:53.029Z,42.90
2018-04-08T12:20:21.229Z,41.90
2018-04-08T12:22:49.510Z,40.60
2018-04-08T12:25:18.441Z,40.00
2018-04-08T12:27:47.420Z,41.50
2018-04-08T12:30:15.672Z,41.00
2018-04-08T12:32:43.866Z,42.50
2018-04-08T12:35:12.100Z,42.20
2018-04-08T12:37:40.504Z,39.60
2018-04-08T12:40:08.718Z,40.80
2018-04-08T12:42:37.844Z,40.40
2018-04-08T12:45:06.138Z,40.40
2018-04-08T12:47:34.504Z,40.20
2018-04-08T12:50:02.796Z,40.70
2018-04-08T12:52:32.365Z,41.00
2018-04-08T12:55:00.842Z,39.40
2018-04-08T12:57:29.008Z,38.40
2018-04-08T12:59:57.417Z,37.90
2018-04-08T13:02:25.609Z,39.40
2018-04-08T13:04:53.802Z,40.90
2018-04-08T13:07:22.039Z,40.00
2018-04-08T13:09:50.244Z,40.30
2018-04-08T13:12:18.453Z,40.70
2018-04-08T13:14:46.716Z,41.50
2018-04-08T13:17:14.912Z,40.60
2018-04-08T13:19:43.112Z,39.70
2018-04-08T13:22:12.310Z,38.70
2018-04-08T13:24:41.264Z,38.50
2018-04-08T13:27:09.462Z,38.40
2018-04-08T13:29:37.825Z,38.40
2018-04-08T13:32:06.061Z,37.80
2018-04-08T13:34:34.264Z,39.00
2018-04-08T13:37:02.495Z,37.10
2018-04-08T13:39:31.461Z,36.70
2018-04-08T13:41:59.680Z,36.60
2018-04-08T13:44:28.043Z,38.60
2018-04-08T13:46:57.036Z,36.10
2018-04-08T13:49:25.256Z,36.10
2018-04-08T13:51:53.548Z,36.20
2018-04-08T13:54:21.781Z,36.80
2018-04-08T13:56:49.974Z,36.80
2018-04-08T13:59:18.261Z,35.20
2018-04-08T14:01:46.458Z,35.80
2018-04-08T14:04:14.644Z,37.80
2018-04-08T14:06:42.866Z,38.10
2018-04-08T14:09:11.065Z,36.20
2018-04-08T14:11:40.097Z,33.90
2018-04-08T14:15:00.370Z,33.30
2018-04-08T14:17:29.614Z,33.20
2018-04-08T14:19:58.069Z,31.70
2018-04-08T14:22:26.256Z,33.00
2018-04-08T14:24:54.587Z,31.90
2018-04-08T14:27:22.949Z,31.10
2018-04-08T14:29:51.688Z,31.80
2018-04-08T14:32:20.667Z,32.00
2018-04-08T14:34:51.458Z,31.70
2018-04-08T14:37:19.769Z,31.60
2018-04-08T14:39:48.056Z,31.90
2018-04-08T14:42:17.077Z,33.30
2018-04-08T14:44:45.344Z,32.70
2018-04-08T14:47:13.562Z,34.00
2018-04-08T14:49:41.942Z,33.90
2018-04-08T14:52:10.248Z,34.50
2018-04-08T14:54:39.328Z,36.70
2018-04-08T14:57:07.721Z,36.70
2018-04-08T14:59:35.914Z,37.60
2018-04-08T15:02:04.169Z,37.80
2018-04-08T15:04:32.440Z,37.40
2018-04-08T15:07:00.730Z,38.90
2018-04-08T15:09:29.007Z,39.00
2018-04-08T15:11:57.326Z,38.90
2018-04-08T15:14:25.532Z,39.70
2018-04-08T15:16:53.749Z,39.80
2018-04-08T15:19:22.733Z,40.20
2018-04-08T15:21:51.802Z,41.90
2018-04-08T15:24:20.105Z,41.80
2018-04-08T15:26:49.161Z,42.50
2018-04-08T15:29:17.393Z,42.50
2018-04-08T15:31:45.669Z,42.90
2018-04-08T15:34:14.045Z,43.10
2018-04-08T15:36:42.277Z,43.50
2018-04-08T15:39:10.517Z,43.00
2018-04-08T15:41:39.064Z,42.90
2018-04-08T15:44:07.611Z,43.60
2018-04-08T15:46:36.161Z,42.50
2018-04-08T15:49:04.524Z,42.10
2018-04-08T15:51:34.519Z,43.50
2018-04-08T15:54:02.863Z,43.50
2018-04-08T15:56:31.518Z,44.90
2018-04-08T15:59:00.605Z,46.80
2018-04-08T16:01:29.103Z,46.70
2018-04-08T16:03:57.388Z,47.30
2018-04-08T16:06:25.739Z,48.60
2018-04-08T16:08:53.946Z,48.80
2018-04-08T16:11:22.269Z,49.60
2018-04-08T16:13:50.553Z,49.80
2018-04-08T16:16:18.980Z,50.10
2018-04-08T16:18:48.550Z,50.80
2018-04-08T16:21:16.902Z,51.70
2018-04-08T16:23:46.004Z,53.00
2018-04-08T16:26:15.044Z,53.50
2018-04-08T16:28:43.640Z,53.50
2018-04-08T16:31:11.982Z,53.10
2018-04-08T16:33:40.582Z,53.40
2018-04-08T16:36:09.844Z,54.80
2018-04-08T16:38:39.092Z,55.40
2018-04-08T16:41:08.346Z,55.40
2018-04-08T16:43:36.608Z,56.10
2018-04-08T16:46:04.892Z,56.80
2018-04-08T16:48:34.289Z,57.50
2018-04-08T16:51:04.459Z,58.10
2018-04-08T16:53:32.717Z,58.80
2018-04-08T16:56:01.101Z,58.40
2018-04-08T16:58:29.421Z,59.70
2018-04-08T17:00:57.665Z,60.50
2018-04-08T17:03:26.401Z,61.20
2018-04-08T17:05:54.725Z,62.50
2018-04-08T17:08:22.958Z,62.50
2018-04-08T17:10:51.259Z,62.80
2018-04-08T17:13:20.303Z,64.80
2018-04-08T17:15:48.616Z,64.80
2018-04-08T17:18:17.664Z,65.80
2018-04-08T17:20:45.888Z,65.80
2018-04-08T17:23:14.926Z,66.90
2018-04-08T17:25:43.596Z,66.80
2018-04-08T17:28:11.812Z,67.00
2018-04-08T17:30:40.243Z,66.90
2018-04-08T17:33:08.665Z,67.20
2018-04-08T17:35:36.875Z,66.90
2018-04-08T17:38:05.133Z,67.80
2018-04-08T17:40:33.359Z,67.50
2018-04-08T17:43:01.651Z,67.60
2018-04-08T17:45:29.941Z,67.80
2018-04-08T17:47:58.248Z,68.90
2018-04-08T17:50:27.239Z,69.90
2018-04-08T17:52:55.467Z,69.80
2018-04-08T17:55:23.829Z,69.90
2018-04-08T17:57:52.123Z,70.10
2018-04-08T18:00:20.428Z,70.40
2018-04-08T18:02:48.679Z,70.30
2018-04-08T18:05:16.881Z,71.00
2018-04-08T18:07:45.137Z,71.70
2018-04-08T18:10:13.521Z,72.00
2018-04-08T18:12:41.924Z,72.80
2018-04-08T18:15:10.382Z,74.10
2018-04-08T18:17:38.904Z,74.00
2018-04-08T18:20:07.941Z,75.30
2018-04-08T18:22:36.241Z,75.30
2018-04-08T18:25:05.074Z,75.70
2018-04-08T18:27:34.761Z,75.90
2018-04-08T18:30:02.996Z,75.80
2018-04-08T18:32:31.289Z,76.80
2018-04-08T18:34:59.892Z,77.00
2018-04-08T18:37:28.144Z,76.90
2018-04-08T18:39:56.423Z,77.30
2018-04-08T18:42:24.705Z,77.40
2018-04-08T18:44:53.016Z,77.90
2018-04-08T18:47:22.160Z,78.50
2018-04-08T18:49:50.462Z,78.50
2018-04-08T18:52:18.748Z,79.10
2018-04-08T18:54:47.113Z,80.10
2018-04-08T18:57:15.368Z,79.70
2018-04-08T18:59:43.701Z,80.00
2018-04-08T19:02:12.713Z,80.70
2018-04-08T19:04:40.989Z,80.80
2018-04-08T19:07:09.234Z,81.40
2018-04-08T19:09:37.560Z,80.60
2018-04-08T19:12:05.806Z,80.80
2018-04-08T19:14:40.789Z,81.20
2018-04-08T19:17:09.310Z,81.30
2018-04-08T19:19:37.580Z,81.80
2018-04-08T19:22:05.885Z,81.60
2018-04-08T19:24:35.030Z,81.90
2018-04-08T19:27:04.615Z,81.90
2018-04-08T19:29:32.981Z,82.30
2018-04-08T19:32:01.381Z,82.60
2018-04-08T19:34:32.409Z,82.40
2018-04-08T19:37:01.014Z,82.70
2018-04-08T19:39:29.417Z,83.30
2018-04-08T19:42:02.470Z,83.70
2018-04-08T19:44:30.905Z,84.20
2018-04-08T19:47:01.765Z,85.00
2018-04-08T19:49:31.170Z,85.80
2018-04-08T19:52:06.618Z,85.80
2018-04-08T19:54:35.624Z,86.10
2018-04-08T19:57:04.104Z,86.20
2018-04-08T19:59:32.727Z,86.30
2018-04-08T20:02:01.271Z,86.50
2018-04-08T20:04:30.562Z,87.10
2018-04-08T20:06:58.930Z,87.20
2018-04-08T20:09:27.224Z,87.70
2018-04-08T20:11:55.606Z,87.80
2018-04-08T20:14:24.282Z,88.80
2018-04-08T20:16:52.533Z,88.60
2018-04-08T20:19:21.640Z,89.40
2018-04-08T20:21:50.272Z,89.30
2018-04-08T20:24:18.613Z,90.00
2018-04-08T20:26:46.912Z,89.80
2018-04-08T20:29:16.437Z,90.10
2018-04-08T20:31:44.673Z,90.20
2018-04-08T20:34:12.889Z,90.50
2018-04-08T20:36:41.563Z,90.40
2018-04-08T20:39:09.937Z,90.40
2018-04-08T20:41:38.213Z,90.60
2018-04-08T20:44:06.620Z,90.80
2018-04-08T20:46:35.061Z,90.80
2018-04-08T20:49:03.297Z,91.00
2018-04-08T20:51:31.539Z,91.00
2018-04-08T20:53:59.952Z,91.20
2018-04-08T20:56:30.869Z,91.50
2018-04-08T20:58:59.217Z,91.60
2018-04-08T21:01:28.569Z,91.80
2018-04-08T21:04:01.281Z,92.10
2018-04-08T21:06:29.908Z,92.10
2018-04-08T21:08:58.372Z,92.00
2018-04-08T21:11:27.125Z,92.30
2018-04-08T21:13:56.125Z,92.50
2018-04-08T21:16:25.960Z,92.60
2018-04-08T21:18:55.096Z,92.60
2018-04-08T21:21:26.077Z,92.90
2018-04-08T21:23:54.761Z,92.70
2018-04-08T21:26:23.061Z,92.90
2018-04-08T21:28:51.483Z,92.90
2018-04-08T21:31:20.036Z,93.00
2018-04-08T21:33:48.478Z,92.90
2018-04-08T21:36:19.205Z,93.10
2018-04-08T21:38:47.603Z,93.20
2018-04-08T21:41:16.742Z,93.40
2018-04-08T21:43:45.254Z,93.30
2018-04-08T21:46:13.461Z,93.60
2018-04-08T21:48:41.705Z,93.70
2018-04-08T21:51:10.069Z,93.80
2018-04-08T21:53:38.284Z,94.10
2018-04-08T21:56:06.596Z,94.10
2018-04-08T21:58:34.990Z,93.90
2018-04-08T22:01:03.295Z,94.00
2018-04-08T22:03:31.693Z,94.00
2018-04-08T22:06:00.272Z,94.30
2018-04-08T22:08:29.304Z,94.10
2018-04-08T22:10:57.747Z,94.10
2018-04-08T22:13:26.202Z,94.20
2018-04-08T22:15:54.936Z,94.40
2018-04-08T22:18:23.246Z,94.40
2018-04-08T22:20:51.697Z,94.60
2018-04-08T22:23:20.681Z,94.70
2018-04-08T22:25:49.241Z,94.60
2018-04-08T22:28:17.602Z,94.70
2018-04-08T22:30:46.043Z,95.10
2018-04-08T22:33:14.649Z,95.00
2018-04-08T22:35:43.006Z,95.10
2018-04-08T22:38:11.393Z,95.80
2018-04-08T22:40:40.073Z,95.70
2018-04-08T22:43:08.513Z,95.80
2018-04-08T22:45:36.762Z,95.90
2018-04-08T22:48:05.159Z,95.80
2018-04-08T22:50:35.821Z,95.80
2018-04-08T22:53:04.052Z,95.20
2018-04-08T22:55:32.380Z,95.00
2018-04-08T22:58:00.637Z,95.00
2018-04-08T23:00:28.928Z,95.70
2018-04-08T23:02:58.587Z,95.80
2018-04-08T23:05:27.034Z,96.10
2018-04-08T23:07:55.257Z,96.30
2018-04-08T23:10:23.538Z,96.20
2018-04-08T23:12:52.632Z,96.10
2018-04-08T23:15:21.082Z,96.10
2018-04-08T23:17:49.444Z,96.50
2018-04-08T23:20:17.786Z,96.40
2018-04-08T23:22:46.796Z,96.50
2018-04-08T23:25:15.260Z,96.50
2018-04-08T23:27:44.617Z,96.50
2018-04-08T23:30:14.351Z,96.50
2018-04-08T23:32:43.598Z,96.50
2018-04-08T23:35:21.250Z,96.50
2018-04-08T23:37:49.653Z,96.70
2018-04-08T23:40:17.886Z,96.80
2018-04-08T23:42:46.422Z,96.90
2018-04-08T23:45:15.773Z,97.10
2018-04-08T23:47:44.009Z,97.30
2018-04-08T23:50:12.487Z,97.30
2018-04-08T23:52:41.917Z,97.30
2018-04-08T23:55:10.520Z,97.50
2018-04-08T23:57:41.266Z,97.70
